createdAt,value
2023-01-19T05:34:04.052Z,96973.81
2023-01-19T05:39:05.774Z,96978.31
2023-01-19T05:44:07.525Z,96977.03
2023-01-19T05:49:09.409Z,96990.38
2023-01-19T05:54:15.401Z,96997.56
2023-01-19T05:59:23.954Z,96996.81
2023-01-19T06:04:26.517Z,96989.59
2023-01-19T06:09:28.407Z,97001.53
2023-01-19T06:14:30.044Z,97013.59
2023-01-19T06:19:32.350Z,97014.06
2023-01-19T06:24:33.996Z,97030.31
2023-01-19T06:29:35.618Z,97037.16
2023-01-19T06:34:37.320Z,97022.19
2023-01-19T06:39:41.268Z,97045.00
2023-01-19T06:44:47.541Z,97055.91
2023-01-19T06:49:49.568Z,97054.72
2023-01-19T06:54:51.139Z,97029.84
2023-01-19T06:59:53.082Z,97074.16
2023-01-19T07:04:55.358Z,97063.78
2023-01-19T07:09:56.960Z,97073.03
2023-01-19T07:14:58.730Z,97062.50
2023-01-19T07:20:00.372Z,97088.81
2023-01-19T07:25:02.075Z,97093.34
2023-01-19T07:30:04.645Z,97095.59
2023-01-19T07:35:06.687Z,97111.56
2023-01-19T07:40:09.167Z,97089.63
2023-01-19T07:45:11.069Z,97113.69
2023-01-19T07:50:13.985Z,97105.63
2023-01-19T07:55:15.873Z,97018.22
2023-01-19T08:00:24.734Z,97107.06
2023-01-19T08:05:27.615Z,97119.38
2023-01-19T08:10:29.497Z,97078.00
2023-01-19T08:15:31.266Z,97115.03
2023-01-19T08:20:32.941Z,97109.78
2023-01-19T08:25:37.809Z,97083.25
2023-01-19T08:30:40.600Z,97129.56
2023-01-19T08:35:47.259Z,97108.09
2023-01-19T08:40:49.042Z,97143.28
2023-01-19T08:45:52.193Z,97154.94
2023-01-19T08:50:54.017Z,97175.28
2023-01-19T08:55:57.772Z,97172.44
2023-01-19T09:01:01.992Z,97158.31
2023-01-19T09:06:08.869Z,97181.97
2023-01-19T09:11:12.423Z,97196.38
2023-01-19T09:16:16.046Z,97185.81
2023-01-19T09:21:18.743Z,97221.59
2023-01-19T09:26:22.469Z,97225.94
2023-01-19T09:31:24.337Z,97229.09
2023-01-19T09:36:26.160Z,97235.69
2023-01-19T09:41:27.936Z,97230.84
2023-01-19T09:46:39.900Z,97232.59
2023-01-19T09:51:45.363Z,97232.78
2023-01-19T09:56:52.141Z,97238.34
2023-01-19T10:02:14.574Z,97226.28
2023-01-19T10:07:29.657Z,97225.34
2023-01-19T10:12:57.547Z,97238.53
2023-01-19T10:18:21.270Z,97232.91
2023-01-19T10:23:34.975Z,97227.78
2023-01-19T10:28:39.040Z,97213.75
2023-01-19T10:33:41.105Z,97197.19
2023-01-19T10:38:43.212Z,97232.88
2023-01-19T10:43:47.181Z,97238.16
2023-01-19T10:48:52.278Z,97238.13
2023-01-19T10:54:02.828Z,97233.81
2023-01-19T10:59:07.037Z,97233.03
2023-01-19T11:04:22.276Z,97233.63
2023-01-19T11:09:24.066Z,97237.31
2023-01-19T11:14:30.849Z,97200.13
2023-01-19T11:19:33.908Z,97185.63
2023-01-19T11:24:38.586Z,97220.56
2023-01-19T11:29:40.412Z,97218.94
2023-01-19T11:34:42.236Z,97217.06
2023-01-19T11:39:50.587Z,97173.75
2023-01-19T11:44:57.920Z,97211.59
2023-01-19T11:50:29.917Z,97214.44
2023-01-19T11:55:48.747Z,97210.88
2023-01-19T12:00:57.044Z,97211.97
2023-01-19T12:06:06.969Z,97214.34
2023-01-19T12:11:12.715Z,97204.63
2023-01-19T12:16:20.851Z,97196.84
2023-01-19T12:21:22.687Z,97195.78
2023-01-19T12:26:37.430Z,97204.06
2023-01-19T12:31:40.810Z,97202.75
2023-01-19T12:36:44.055Z,97209.66
2023-01-19T12:41:48.804Z,97206.53
2023-01-19T12:46:57.390Z,97194.56
2023-01-19T12:52:21.047Z,97211.13
2023-01-19T12:57:50.444Z,97204.94
2023-01-19T13:02:56.312Z,97198.78
2023-01-19T13:08:07.228Z,97206.69
2023-01-19T13:13:29.518Z,97203.28
2023-01-19T13:18:38.415Z,97200.09
2023-01-19T13:23:52.315Z,97206.88
2023-01-19T13:28:57.491Z,97183.00
2023-01-19T13:34:01.564Z,97207.16
2023-01-19T13:39:28.953Z,97207.16
2023-01-19T13:44:42.339Z,97211.44
2023-01-19T13:49:46.698Z,97208.81
2023-01-19T13:54:55.671Z,97218.38
2023-01-19T14:00:09.867Z,97222.72
2023-01-19T14:05:20.060Z,97226.09
2023-01-19T14:10:21.697Z,97217.06
2023-01-19T14:15:23.517Z,97226.78
2023-01-19T14:20:30.434Z,97236.66
2023-01-19T14:25:34.668Z,97232.41
2023-01-19T14:30:36.859Z,97228.16
2023-01-19T14:35:38.651Z,97234.94
2023-01-19T14:40:40.800Z,97248.03
2023-01-19T14:45:47.626Z,97250.59
2023-01-19T14:51:02.875Z,97242.19
2023-01-19T14:56:06.904Z,97253.31
2023-01-19T15:01:09.241Z,97265.66
2023-01-19T15:06:16.682Z,97269.59
2023-01-19T15:11:22.777Z,97253.63
2023-01-19T15:16:27.565Z,97275.66
2023-01-19T15:21:29.511Z,97279.59
2023-01-19T15:26:31.183Z,97267.91
2023-01-19T15:31:32.853Z,97278.94
2023-01-19T15:36:34.602Z,97296.34
2023-01-19T15:41:38.396Z,97279.41
2023-01-19T15:46:41.099Z,97293.72
2023-01-19T15:51:42.700Z,97287.31
2023-01-19T15:56:59.961Z,97289.19
2023-01-19T16:02:01.924Z,97300.03
2023-01-19T16:07:03.946Z,97303.13
2023-01-19T16:12:05.859Z,97317.91
2023-01-19T16:17:07.554Z,97331.19
2023-01-19T16:22:11.310Z,97326.31
2023-01-19T16:27:12.926Z,97319.31
2023-01-19T16:32:15.270Z,97334.03
2023-01-19T16:37:18.386Z,97341.72
2023-01-19T16:42:20.348Z,97326.63
2023-01-19T16:47:22.094Z,97336.34
2023-01-19T16:52:23.766Z,97325.31
2023-01-19T16:57:25.526Z,97336.03
2023-01-19T17:02:27.268Z,97340.72
2023-01-19T17:07:28.930Z,97325.06
2023-01-19T17:12:32.229Z,97349.78
2023-01-19T17:17:36.271Z,97350.63
2023-01-19T17:22:37.888Z,97353.41
2023-01-19T17:27:39.725Z,97355.59
2023-01-19T17:32:42.688Z,97354.97
2023-01-19T17:37:44.478Z,97331.69
2023-01-19T17:42:46.184Z,97343.91
2023-01-19T17:47:50.955Z,97331.47
2023-01-19T17:52:52.918Z,97323.88
2023-01-19T17:57:54.544Z,97358.63
2023-01-19T18:02:56.167Z,97353.53
2023-01-19T18:08:00.173Z,97343.72
2023-01-19T18:13:01.873Z,97341.88
2023-01-19T18:18:04.529Z,97335.25
2023-01-19T18:23:09.397Z,97328.25
2023-01-19T18:28:10.980Z,97349.97
2023-01-19T18:33:12.592Z,97351.06
2023-01-19T18:38:14.837Z,97363.47
2023-01-19T18:43:16.438Z,97371.66
2023-01-19T18:48:18.192Z,97360.13
2023-01-19T18:53:20.573Z,97355.22
2023-01-19T18:58:22.978Z,97367.09
2023-01-19T19:03:24.968Z,97354.22
2023-01-19T19:08:26.621Z,97370.00
2023-01-19T19:13:28.366Z,97364.03
2023-01-19T19:18:30.949Z,97346.88
2023-01-19T19:23:32.661Z,97359.22
2023-01-19T19:28:37.257Z,97337.88
2023-01-19T19:33:39.940Z,97342.66
2023-01-19T19:38:42.942Z,97338.59
2023-01-19T19:43:45.003Z,97354.94
2023-01-19T19:48:48.163Z,97349.25
2023-01-19T19:53:51.838Z,97345.03
2023-01-19T19:58:56.246Z,97336.72
2023-01-19T20:04:00.293Z,97345.09
2023-01-19T20:09:02.070Z,97343.16
2023-01-19T20:14:08.428Z,97347.69
2023-01-19T20:19:10.549Z,97319.09
2023-01-19T20:24:19.187Z,97332.41
2023-01-19T20:29:21.421Z,97352.53
2023-01-19T20:34:28.162Z,97348.94
2023-01-19T20:39:33.359Z,97353.53
2023-01-19T20:44:35.146Z,97345.28
2023-01-19T20:49:36.910Z,97367.97
2023-01-19T20:54:39.890Z,97366.13
2023-01-19T20:59:41.625Z,97353.44
